createdAt,value
2023-03-29T00:00:44.199Z,62.77
2023-03-29T00:01:44.157Z,62.77
2023-03-29T00:02:44.259Z,62.77
2023-03-29T00:03:44.378Z,62.77
2023-03-29T00:04:44.210Z,62.77
2023-03-29T00:05:44.114Z,62.77
2023-03-29T00:06:44.100Z,62.77
2023-03-29T00:07:44.120Z,62.77
2023-03-29T00:08:44.079Z,62.77
2023-03-29T00:09:44.082Z,62.77
2023-03-29T00:10:44.076Z,62.77
2023-03-29T00:11:44.047Z,62.67
2023-03-29T00:12:44.087Z,62.67
2023-03-29T00:13:44.031Z,62.81
2023-03-29T00:14:44.033Z,62.81
2023-03-29T00:15:44.018Z,62.81
2023-03-29T00:16:44.045Z,62.77
2023-03-29T00:17:44.090Z,62.77
2023-03-29T00:18:43.984Z,62.70
2023-03-29T00:19:43.983Z,62.81
2023-03-29T00:20:43.955Z,62.77
2023-03-29T00:21:43.941Z,62.81
2023-03-29T00:22:43.934Z,62.81
2023-03-29T00:23:43.925Z,62.67
2023-03-29T00:24:43.929Z,62.67
2023-03-29T00:25:43.894Z,62.70
2023-03-29T00:26:43.893Z,62.67
2023-03-29T00:27:43.873Z,62.70
2023-03-29T00:28:43.904Z,62.70
2023-03-29T00:29:43.873Z,62.70
2023-03-29T00:30:43.854Z,62.67
2023-03-29T00:31:43.878Z,62.70
2023-03-29T00:32:43.983Z,62.70
2023-03-29T00:33:43.811Z,62.67
2023-03-29T00:34:43.804Z,62.70
2023-03-29T00:35:43.809Z,62.70
2023-03-29T00:36:43.804Z,62.70
2023-03-29T00:37:43.770Z,62.70
2023-03-29T00:38:43.758Z,62.67
2023-03-29T00:39:43.746Z,62.70
2023-03-29T00:40:43.759Z,62.67
2023-03-29T00:41:43.723Z,62.70
2023-03-29T00:42:43.710Z,62.70
2023-03-29T00:43:43.703Z,62.70
2023-03-29T00:44:43.836Z,62.70
2023-03-29T00:45:43.722Z,62.67
2023-03-29T00:46:43.727Z,62.70
2023-03-29T00:47:43.738Z,62.70
2023-03-29T00:48:43.645Z,62.70
2023-03-29T00:49:43.637Z,62.70
2023-03-29T00:50:43.651Z,62.70
2023-03-29T00:51:43.611Z,62.70
2023-03-29T00:52:43.612Z,62.70
2023-03-29T00:53:43.590Z,62.67
2023-03-29T00:54:43.604Z,62.70
2023-03-29T00:55:43.570Z,62.70
2023-03-29T00:56:43.574Z,62.70
2023-03-29T00:57:43.546Z,62.70
2023-03-29T00:58:43.542Z,62.70
2023-03-29T00:59:43.545Z,62.70
2023-03-29T01:00:43.546Z,62.70
2023-03-29T01:01:43.568Z,62.70
2023-03-29T01:02:43.621Z,62.70
2023-03-29T01:03:43.576Z,62.70
2023-03-29T01:04:43.498Z,62.70
2023-03-29T01:05:43.507Z,62.70
2023-03-29T01:06:43.613Z,62.70
2023-03-29T01:07:43.443Z,62.70
2023-03-29T01:08:43.430Z,62.70
2023-03-29T01:09:43.452Z,62.70
2023-03-29T01:10:43.409Z,62.70
2023-03-29T01:11:43.399Z,62.70
2023-03-29T01:12:43.384Z,62.70
2023-03-29T01:13:43.376Z,62.70
2023-03-29T01:14:43.387Z,62.70
2023-03-29T01:15:43.357Z,62.70
2023-03-29T01:16:43.413Z,62.70
2023-03-29T01:17:43.393Z,62.70
2023-03-29T01:18:43.328Z,62.70
2023-03-29T01:19:43.335Z,62.70
2023-03-29T01:20:43.312Z,62.70
2023-03-29T01:21:43.292Z,62.70
2023-03-29T01:22:43.280Z,62.70
2023-03-29T01:23:43.274Z,62.70
2023-03-29T01:24:43.278Z,62.70
2023-03-29T01:25:43.253Z,62.70
2023-03-29T01:26:43.264Z,62.70
2023-03-29T01:27:43.256Z,62.70
2023-03-29T01:28:43.217Z,62.70
2023-03-29T01:29:43.231Z,62.70
2023-03-29T01:30:43.215Z,62.70
2023-03-29T01:31:43.231Z,62.70
2023-03-29T01:32:43.282Z,62.70
2023-03-29T01:33:43.159Z,62.70
2023-03-29T01:34:43.152Z,62.70
2023-03-29T01:35:43.210Z,62.70
2023-03-29T01:36:43.160Z,62.70
2023-03-29T01:37:43.116Z,62.70
2023-03-29T01:38:43.107Z,62.70
2023-03-29T01:39:43.103Z,62.70
2023-03-29T01:40:43.121Z,62.70
2023-03-29T01:41:43.093Z,62.70
2023-03-29T01:42:43.062Z,62.70
2023-03-29T01:43:43.056Z,62.70
2023-03-29T01:44:43.040Z,62.70
2023-03-29T01:45:43.084Z,62.70
2023-03-29T01:46:43.064Z,62.70
2023-03-29T01:47:43.035Z,62.70
2023-03-29T01:48:43.025Z,62.70
2023-03-29T01:49:42.988Z,62.70
2023-03-29T01:50:42.975Z,62.70
2023-03-29T01:51:42.962Z,62.70
2023-03-29T01:52:43.022Z,62.70
2023-03-29T01:53:42.945Z,62.70
2023-03-29T01:54:42.933Z,62.70
2023-03-29T01:55:42.930Z,62.70
2023-03-29T01:56:42.940Z,62.70
2023-03-29T01:57:42.918Z,62.70
2023-03-29T01:58:42.892Z,62.70
2023-03-29T01:59:42.879Z,62.70
2023-03-29T02:00:42.864Z,62.70
2023-03-29T02:01:42.875Z,62.70
2023-03-29T02:02:42.972Z,62.70
2023-03-29T02:03:42.956Z,62.70
2023-03-29T02:04:42.844Z,62.70
2023-03-29T02:05:42.809Z,62.70
2023-03-29T02:06:42.810Z,62.70
2023-03-29T02:07:42.788Z,62.70
2023-03-29T02:08:42.798Z,62.70
2023-03-29T02:09:42.777Z,62.70
2023-03-29T02:10:42.762Z,62.70
2023-03-29T02:11:42.747Z,62.70
2023-03-29T02:12:42.733Z,62.70
2023-03-29T02:13:42.766Z,62.70
2023-03-29T02:14:42.732Z,62.70
2023-03-29T02:15:42.740Z,62.70
2023-03-29T02:16:42.693Z,62.70
2023-03-29T02:17:42.763Z,62.70
2023-03-29T02:18:42.714Z,62.70
2023-03-29T02:19:42.660Z,62.70
2023-03-29T02:20:42.702Z,62.70
2023-03-29T02:21:42.751Z,62.70
2023-03-29T02:22:42.738Z,62.70
2023-03-29T02:23:42.692Z,62.70
2023-03-29T02:24:42.707Z,62.70
2023-03-29T02:25:42.595Z,62.70
2023-03-29T02:26:42.580Z,62.70
2023-03-29T02:27:42.571Z,62.70
2023-03-29T02:28:42.568Z,62.70
2023-03-29T02:29:42.569Z,62.70
2023-03-29T02:30:42.559Z,62.70
2023-03-29T02:31:42.563Z,62.70
2023-03-29T02:32:42.555Z,62.70
2023-03-29T02:33:42.504Z,62.70
2023-03-29T02:34:42.496Z,62.70
2023-03-29T02:35:42.511Z,62.70
2023-03-29T02:36:42.501Z,62.70
2023-03-29T02:37:42.463Z,62.70
2023-03-29T02:38:42.453Z,62.70
2023-03-29T02:39:42.444Z,62.70
2023-03-29T02:40:42.452Z,62.70
2023-03-29T02:41:42.416Z,62.70
2023-03-29T02:42:42.409Z,62.70
2023-03-29T02:43:42.400Z,62.70
2023-03-29T02:44:42.385Z,62.70
2023-03-29T02:45:42.397Z,62.70
2023-03-29T02:46:42.394Z,62.70
2023-03-29T02:47:42.398Z,62.70
2023-03-29T02:48:42.355Z,62.70
2023-03-29T02:49:42.331Z,62.70
2023-03-29T02:50:42.344Z,62.70
2023-03-29T02:51:42.334Z,62.60
2023-03-29T02:52:42.331Z,62.70
2023-03-29T02:53:42.308Z,62.60
2023-03-29T02:54:42.283Z,62.70
2023-03-29T02:55:42.268Z,62.60
2023-03-29T02:56:42.306Z,62.70
2023-03-29T02:57:42.250Z,62.70
2023-03-29T02:58:42.235Z,62.60
2023-03-29T02:59:42.229Z,62.60
2023-03-29T03:00:42.217Z,62.60
2023-03-29T03:01:42.274Z,62.60
2023-03-29T03:02:42.276Z,62.70
2023-03-29T03:03:42.284Z,62.60
2023-03-29T03:04:42.176Z,62.70
2023-03-29T03:05:42.342Z,62.60
2023-03-29T03:06:42.173Z,62.70
2023-03-29T03:07:42.169Z,62.70
2023-03-29T03:08:42.159Z,62.70
2023-03-29T03:09:42.125Z,62.70
2023-03-29T03:10:42.115Z,62.60
2023-03-29T03:11:42.102Z,62.60
2023-03-29T03:12:42.116Z,62.70
2023-03-29T03:13:42.088Z,62.70
2023-03-29T03:14:42.067Z,62.70
2023-03-29T03:15:42.054Z,62.70
2023-03-29T03:16:42.158Z,62.70
2023-03-29T03:17:42.075Z,62.60
2023-03-29T03:18:42.050Z,62.70
2023-03-29T03:19:42.021Z,62.70
2023-03-29T03:20:42.000Z,62.70
2023-03-29T03:21:41.996Z,62.70
2023-03-29T03:22:42.004Z,62.70
2023-03-29T03:23:41.987Z,62.70
2023-03-29T03:24:42.021Z,62.70
2023-03-29T03:25:41.943Z,62.70
2023-03-29T03:26:41.957Z,62.70
2023-03-29T03:27:41.933Z,62.70
2023-03-29T03:28:41.931Z,62.70
2023-03-29T03:29:41.925Z,62.70
2023-03-29T03:30:41.905Z,62.70
2023-03-29T03:31:41.897Z,62.70
2023-03-29T03:32:41.913Z,62.70
2023-03-29T03:33:41.883Z,62.60
2023-03-29T03:34:41.865Z,62.70
2023-03-29T03:35:41.872Z,62.70
2023-03-29T03:36:41.828Z,62.70
2023-03-29T03:37:41.814Z,62.70
2023-03-29T03:38:41.805Z,62.70
2023-03-29T03:39:41.824Z,62.70
2023-03-29T03:40:41.834Z,62.70
2023-03-29T03:41:41.772Z,62.70
2023-03-29T03:42:41.775Z,62.70
2023-03-29T03:43:41.751Z,62.70
2023-03-29T03:44:41.771Z,62.70
2023-03-29T03:45:41.875Z,62.70
2023-03-29T03:46:41.713Z,62.70
2023-03-29T03:47:41.776Z,62.60
2023-03-29T03:48:41.694Z,62.70
2023-03-29T03:49:41.685Z,62.60
2023-03-29T03:50:41.671Z,62.70
2023-03-29T03:51:41.668Z,62.70
2023-03-29T03:52:41.690Z,62.70
2023-03-29T03:53:41.667Z,62.70
2023-03-29T03:54:41.629Z,62.60
2023-03-29T03:55:41.640Z,62.60
2023-03-29T03:56:41.647Z,62.60
2023-03-29T03:57:41.603Z,62.60
2023-03-29T03:58:41.621Z,62.60
2023-03-29T03:59:41.586Z,62.70
2023-03-29T04:00:41.637Z,62.60
2023-03-29T04:01:41.580Z,62.60
2023-03-29T04:02:41.621Z,62.70
2023-03-29T04:03:41.706Z,62.70
2023-03-29T04:04:41.525Z,62.60
2023-03-29T04:05:41.529Z,62.60
2023-03-29T04:06:43.563Z,62.70
2023-03-29T04:07:41.487Z,62.70
2023-03-29T04:08:41.490Z,62.70
2023-03-29T04:09:41.512Z,62.70
2023-03-29T04:10:41.484Z,62.60
2023-03-29T04:11:41.475Z,62.60
2023-03-29T04:12:41.459Z,62.60
2023-03-29T04:13:41.422Z,62.70
2023-03-29T04:14:41.425Z,62.70
2023-03-29T04:15:41.408Z,62.70
2023-03-29T04:16:41.420Z,62.70
2023-03-29T04:17:41.479Z,62.70
2023-03-29T04:18:41.457Z,62.70
2023-03-29T04:19:41.358Z,62.70
2023-03-29T04:20:41.352Z,62.70
2023-03-29T04:21:41.360Z,62.70
2023-03-29T04:22:41.366Z,62.70
2023-03-29T04:23:41.318Z,62.70
2023-03-29T04:24:41.305Z,62.70
2023-03-29T04:25:41.293Z,62.70
2023-03-29T04:26:41.308Z,62.70
2023-03-29T04:27:41.274Z,62.70
2023-03-29T04:28:41.287Z,62.70
2023-03-29T04:29:41.260Z,62.70
2023-03-29T04:30:41.267Z,62.70
2023-03-29T04:31:41.268Z,62.70
2023-03-29T04:32:41.279Z,62.70
2023-03-29T04:33:41.218Z,62.70
2023-03-29T04:34:41.208Z,62.70
2023-03-29T04:35:41.264Z,62.70
2023-03-29T04:36:41.181Z,62.70
2023-03-29T04:37:41.180Z,62.70
2023-03-29T04:38:41.166Z,62.70
2023-03-29T04:39:41.158Z,62.70
2023-03-29T04:40:41.154Z,62.70
2023-03-29T04:41:41.161Z,62.70
2023-03-29T04:42:41.119Z,62.70
2023-03-29T04:43:41.115Z,62.70
2023-03-29T04:44:41.180Z,62.70
2023-03-29T04:45:41.097Z,62.70
2023-03-29T04:46:41.129Z,62.70
2023-03-29T04:47:41.113Z,62.70
2023-03-29T04:48:41.055Z,62.70
2023-03-29T04:49:41.057Z,62.70
2023-03-29T04:50:41.035Z,62.70
2023-03-29T04:51:41.023Z,62.70
2023-03-29T04:52:41.058Z,62.70
2023-03-29T04:53:41.030Z,62.81
2023-03-29T04:54:40.992Z,62.81
2023-03-29T04:55:40.989Z,62.81
2023-03-29T04:56:41.015Z,62.70
2023-03-29T04:57:40.960Z,62.70
2023-03-29T04:58:40.948Z,62.70
2023-03-29T04:59:40.957Z,62.70
2023-03-29T05:00:40.965Z,62.70
2023-03-29T05:01:40.992Z,62.70
2023-03-29T05:02:40.918Z,62.70
2023-03-29T05:03:40.926Z,62.70
2023-03-29T05:04:41.075Z,62.70
2023-03-29T05:05:40.869Z,62.70
2023-03-29T05:06:40.860Z,62.70
2023-03-29T05:07:40.873Z,62.70
2023-03-29T05:08:40.847Z,62.70
2023-03-29T05:09:40.837Z,62.70
2023-03-29T05:10:40.817Z,62.70
2023-03-29T05:11:40.804Z,62.70
2023-03-29T05:12:40.815Z,62.70
2023-03-29T05:13:40.785Z,62.70
2023-03-29T05:14:40.772Z,62.70
2023-03-29T05:15:41.342Z,62.70
2023-03-29T05:16:40.814Z,62.70
2023-03-29T05:17:40.814Z,62.70
2023-03-29T05:18:40.735Z,62.70
2023-03-29T05:19:40.760Z,62.70
2023-03-29T05:20:40.707Z,62.81
2023-03-29T05:21:41.100Z,62.81
2023-03-29T05:22:40.685Z,62.81
2023-03-29T05:23:40.695Z,62.81
2023-03-29T05:24:40.678Z,62.81
2023-03-29T05:25:40.662Z,62.81
2023-03-29T05:26:40.670Z,62.81
2023-03-29T05:27:40.631Z,62.81
2023-03-29T05:28:40.623Z,62.81
2023-03-29T05:29:40.637Z,62.81
2023-03-29T05:30:40.632Z,62.81
2023-03-29T05:31:40.673Z,62.81
2023-03-29T05:32:40.646Z,62.81
2023-03-29T05:33:40.582Z,62.81
2023-03-29T05:34:40.557Z,62.81
2023-03-29T05:35:40.610Z,62.81
2023-03-29T05:36:40.540Z,62.81
2023-03-29T05:37:40.535Z,62.81
2023-03-29T05:38:40.516Z,62.81
2023-03-29T05:39:40.521Z,62.81
2023-03-29T05:40:40.493Z,62.81
2023-03-29T05:41:40.484Z,62.81
2023-03-29T05:42:40.470Z,62.81
2023-03-29T05:43:40.459Z,62.81
2023-03-29T05:44:40.468Z,62.81
2023-03-29T05:45:40.497Z,62.81
2023-03-29T05:46:40.434Z,62.81
2023-03-29T05:47:40.484Z,62.81
2023-03-29T05:48:40.473Z,62.81
2023-03-29T05:49:40.389Z,62.81
2023-03-29T05:50:40.400Z,62.81
2023-03-29T05:51:40.370Z,62.81
2023-03-29T05:52:40.356Z,62.81
2023-03-29T05:53:40.355Z,62.81
2023-03-29T05:54:40.352Z,62.81
2023-03-29T05:55:40.350Z,62.81
2023-03-29T05:56:40.364Z,62.81
2023-03-29T05:57:40.330Z,62.81
2023-03-29T05:58:40.295Z,62.81
2023-03-29T05:59:40.288Z,62.81
2023-03-29T06:00:40.277Z,62.81
2023-03-29T06:01:40.284Z,62.81
2023-03-29T06:02:40.354Z,62.81
2023-03-29T06:03:40.364Z,62.81
2023-03-29T06:04:40.307Z,62.81
2023-03-29T06:05:40.217Z,62.81
2023-03-29T06:06:40.237Z,62.81
2023-03-29T06:07:40.202Z,62.81
2023-03-29T06:08:40.196Z,62.81
2023-03-29T06:09:40.172Z,62.81
2023-03-29T06:10:40.187Z,62.81
2023-03-29T06:11:40.154Z,62.81
2023-03-29T06:12:40.149Z,62.81
2023-03-29T06:13:40.129Z,62.81
2023-03-29T06:14:40.145Z,62.81
2023-03-29T06:15:40.114Z,62.81
2023-03-29T06:16:42.610Z,62.81
2023-03-29T06:17:40.155Z,62.81
2023-03-29T06:18:40.230Z,62.81
2023-03-29T06:19:40.094Z,62.90
2023-03-29T06:20:40.088Z,62.81
2023-03-29T06:21:40.093Z,62.81
2023-03-29T06:22:40.038Z,62.81
2023-03-29T06:23:40.049Z,62.81
2023-03-29T06:24:40.041Z,62.90
2023-03-29T06:25:40.028Z,62.90
2023-03-29T06:26:39.996Z,62.81
2023-03-29T06:27:39.982Z,62.90
2023-03-29T06:28:39.971Z,62.90
2023-03-29T06:29:39.966Z,62.90
2023-03-29T06:30:39.948Z,62.90
2023-03-29T06:31:40.017Z,63.01
2023-03-29T06:32:40.008Z,63.10
2023-03-29T06:33:39.933Z,63.10
2023-03-29T06:34:39.914Z,63.10
2023-03-29T06:35:39.911Z,63.10
2023-03-29T06:36:39.939Z,63.10
2023-03-29T06:37:39.885Z,63.10
2023-03-29T06:38:39.865Z,63.01
2023-03-29T06:39:39.861Z,63.01
2023-03-29T06:40:39.845Z,63.01
2023-03-29T06:41:39.856Z,63.01
2023-03-29T06:42:39.823Z,63.01
2023-03-29T06:43:39.839Z,63.01
2023-03-29T06:44:39.823Z,63.01
2023-03-29T06:45:39.797Z,63.10
2023-03-29T06:46:39.836Z,63.10
2023-03-29T06:47:39.861Z,63.01
2023-03-29T06:48:39.766Z,63.01
2023-03-29T06:49:39.748Z,63.01
2023-03-29T06:50:39.741Z,63.01
2023-03-29T06:51:39.751Z,63.01
2023-03-29T06:52:39.744Z,63.01
2023-03-29T06:53:39.703Z,63.01
2023-03-29T06:54:39.693Z,63.01
2023-03-29T06:55:39.691Z,62.90
2023-03-29T06:56:39.816Z,62.90
2023-03-29T06:57:39.664Z,62.90
2023-03-29T06:58:39.652Z,62.81
2023-03-29T06:59:39.639Z,62.81
2023-03-29T07:00:39.641Z,62.81
2023-03-29T07:01:39.686Z,62.87
2023-03-29T07:02:39.638Z,62.87
2023-03-29T07:03:39.595Z,62.98
2023-03-29T07:04:39.733Z,63.08
2023-03-29T07:05:39.576Z,63.18
2023-03-29T07:06:39.843Z,63.18
2023-03-29T07:07:39.572Z,63.28
2023-03-29T07:08:39.569Z,63.38
2023-03-29T07:09:39.528Z,63.38
2023-03-29T07:10:39.542Z,63.48
2023-03-29T07:11:39.512Z,63.48
2023-03-29T07:12:39.522Z,63.58
2023-03-29T07:13:39.488Z,63.58
2023-03-29T07:14:39.476Z,63.68
2023-03-29T07:15:39.469Z,63.78
2023-03-29T07:16:39.527Z,63.78
2023-03-29T07:17:39.470Z,63.78
2023-03-29T07:18:39.432Z,63.28
2023-03-29T07:19:39.437Z,63.48
2023-03-29T07:20:39.409Z,63.68
2023-03-29T07:21:39.425Z,63.58
2023-03-29T07:22:39.385Z,63.68
2023-03-29T07:23:39.384Z,63.58
2023-03-29T07:24:39.422Z,63.38
2023-03-29T07:25:39.357Z,63.38
2023-03-29T07:26:46.337Z,63.18
2023-03-29T07:27:40.361Z,63.28
2023-03-29T07:28:39.337Z,63.28
2023-03-29T07:29:39.306Z,63.28
2023-03-29T07:30:39.305Z,63.28
2023-03-29T07:31:39.291Z,63.18
2023-03-29T07:32:39.385Z,62.98
2023-03-29T07:33:39.491Z,62.87
2023-03-29T07:34:39.266Z,62.87
2023-03-29T07:35:39.304Z,63.08
2023-03-29T07:36:39.237Z,63.18
2023-03-29T07:37:39.219Z,63.28
2023-03-29T07:38:39.217Z,63.58
2023-03-29T07:39:39.210Z,63.58
2023-03-29T07:40:39.254Z,63.68
2023-03-29T07:41:39.197Z,63.68
2023-03-29T07:42:39.166Z,63.58
2023-03-29T07:43:39.201Z,63.28
2023-03-29T07:44:39.149Z,63.48
2023-03-29T07:45:39.213Z,63.48
2023-03-29T07:46:39.128Z,63.58
2023-03-29T07:47:39.143Z,63.58
2023-03-29T07:48:39.098Z,63.55
2023-03-29T07:49:39.128Z,63.78
2023-03-29T07:50:39.084Z,63.76
2023-03-29T07:51:39.081Z,63.85
2023-03-29T07:52:39.058Z,63.96
2023-03-29T07:53:39.043Z,63.96
2023-03-29T07:54:39.065Z,64.06
2023-03-29T07:55:39.021Z,64.06
2023-03-29T07:56:39.174Z,64.06
2023-03-29T07:57:38.998Z,64.06
2023-03-29T07:58:38.990Z,64.06
2023-03-29T07:59:39.000Z,63.96
2023-03-29T08:00:39.050Z,63.85
2023-03-29T08:01:38.956Z,63.45
2023-03-29T08:02:38.963Z,63.65
2023-03-29T08:03:38.942Z,63.65
2023-03-29T08:04:38.956Z,63.65
2023-03-29T08:05:41.738Z,63.55
2023-03-29T08:06:38.922Z,63.55
2023-03-29T08:07:38.894Z,63.55
2023-03-29T08:08:38.888Z,63.45
2023-03-29T08:09:38.872Z,63.45
2023-03-29T08:10:38.865Z,63.35
2023-03-29T08:11:38.881Z,63.35
2023-03-29T08:12:39.007Z,63.25
2023-03-29T08:13:38.830Z,63.25
2023-03-29T08:14:38.821Z,63.25
2023-03-29T08:15:38.850Z,63.25
2023-03-29T08:16:38.862Z,63.25
2023-03-29T08:17:38.814Z,63.25
2023-03-29T08:18:38.777Z,63.15
2023-03-29T08:19:38.769Z,63.25
2023-03-29T08:20:38.754Z,63.25
2023-03-29T08:21:38.792Z,63.25
2023-03-29T08:22:38.735Z,63.25
2023-03-29T08:23:38.722Z,63.35
2023-03-29T08:24:38.721Z,63.35
2023-03-29T08:25:38.705Z,63.55
2023-03-29T08:26:38.719Z,63.65
2023-03-29T08:27:38.693Z,63.65
2023-03-29T08:28:38.769Z,63.65
2023-03-29T08:29:38.657Z,63.35
2023-03-29T08:30:38.720Z,63.55
2023-03-29T08:31:38.681Z,63.65
2023-03-29T08:32:38.677Z,63.45
2023-03-29T08:33:38.640Z,63.65
2023-03-29T08:34:38.615Z,63.85
2023-03-29T08:35:38.610Z,63.96
2023-03-29T08:36:38.584Z,64.06
2023-03-29T08:37:38.573Z,64.16
2023-03-29T08:38:38.588Z,64.16
2023-03-29T08:39:38.562Z,64.16
2023-03-29T08:40:38.540Z,64.16
2023-03-29T08:41:38.529Z,64.06
2023-03-29T08:42:38.519Z,64.06
2023-03-29T08:43:38.510Z,64.06
2023-03-29T08:44:38.544Z,64.06
2023-03-29T08:45:38.483Z,63.96
2023-03-29T08:46:38.548Z,64.06
2023-03-29T08:47:38.484Z,63.96
2023-03-29T08:48:38.452Z,64.06
2023-03-29T08:49:38.467Z,64.06
2023-03-29T08:50:38.432Z,64.06
2023-03-29T08:51:38.419Z,64.06
2023-03-29T08:52:38.427Z,64.16
2023-03-29T08:53:38.423Z,64.16
2023-03-29T08:54:38.385Z,64.16
2023-03-29T08:55:38.389Z,64.16
2023-03-29T08:56:38.408Z,64.16
2023-03-29T08:57:38.355Z,64.06
2023-03-29T08:58:38.340Z,64.06
2023-03-29T08:59:38.355Z,64.06
2023-03-29T09:00:38.356Z,63.96
2023-03-29T09:01:38.394Z,63.96
2023-03-29T09:02:38.365Z,63.85
2023-03-29T09:03:38.353Z,63.85
2023-03-29T09:04:38.297Z,63.85
2023-03-29T09:05:38.266Z,63.96
2023-03-29T09:06:38.252Z,63.96
2023-03-29T09:07:38.242Z,63.96
2023-03-29T09:08:38.237Z,63.96
2023-03-29T09:09:38.252Z,64.06
2023-03-29T09:10:38.210Z,64.06
2023-03-29T09:11:38.206Z,63.96
2023-03-29T09:12:38.199Z,63.96
2023-03-29T09:13:38.178Z,63.96
2023-03-29T09:14:38.193Z,64.06
2023-03-29T09:15:38.160Z,64.06
2023-03-29T09:16:38.229Z,64.06
2023-03-29T09:17:38.206Z,64.06
2023-03-29T09:18:38.129Z,64.16
2023-03-29T09:19:38.113Z,64.16
2023-03-29T09:20:38.121Z,64.16
2023-03-29T09:21:38.089Z,64.16
2023-03-29T09:22:38.098Z,64.16
2023-03-29T09:23:38.068Z,64.16
2023-03-29T09:24:38.055Z,64.16
2023-03-29T09:25:50.812Z,64.16
2023-03-29T09:26:39.053Z,64.16
2023-03-29T09:27:38.025Z,64.16
2023-03-29T09:28:38.021Z,64.16
2023-03-29T09:29:38.008Z,64.16
2023-03-29T09:30:37.990Z,64.26
2023-03-29T09:31:38.059Z,64.16
2023-03-29T09:32:38.140Z,64.26
2023-03-29T09:33:37.960Z,64.16
2023-03-29T09:34:37.953Z,64.26
2023-03-29T09:35:37.999Z,64.16
2023-03-29T09:36:37.959Z,64.06
2023-03-29T09:37:37.912Z,64.06
2023-03-29T09:38:37.901Z,64.16
2023-03-29T09:39:37.889Z,64.16
2023-03-29T09:40:37.905Z,64.16
2023-03-29T09:41:37.890Z,64.16
2023-03-29T09:42:37.866Z,64.26
2023-03-29T09:43:37.904Z,64.26
2023-03-29T09:44:37.841Z,64.26
2023-03-29T09:45:37.848Z,64.26
2023-03-29T09:46:37.817Z,64.33
2023-03-29T09:47:38.747Z,64.33
2023-03-29T09:48:37.819Z,64.33
2023-03-29T09:49:37.782Z,64.33
2023-03-29T09:50:37.778Z,64.33
2023-03-29T09:51:37.765Z,64.33
2023-03-29T09:52:37.758Z,64.33
2023-03-29T09:53:37.768Z,64.33
2023-03-29T09:54:37.727Z,64.23
2023-03-29T09:55:37.716Z,64.13
2023-03-29T09:56:37.806Z,64.13
2023-03-29T09:57:37.694Z,64.23
2023-03-29T09:58:37.716Z,64.23
2023-03-29T09:59:37.676Z,64.23
2023-03-29T10:00:37.662Z,64.23
2023-03-29T10:01:37.770Z,64.23
2023-03-29T10:02:37.665Z,64.23
2023-03-29T10:03:37.634Z,64.33
2023-03-29T10:04:37.748Z,64.33
2023-03-29T10:05:37.615Z,64.23
2023-03-29T10:06:37.620Z,64.13
2023-03-29T10:07:37.586Z,64.13
2023-03-29T10:08:37.574Z,64.13
2023-03-29T10:09:37.568Z,64.13
2023-03-29T10:10:37.552Z,64.13
2023-03-29T10:11:37.568Z,64.13
2023-03-29T10:12:37.551Z,64.33
2023-03-29T10:13:37.545Z,64.33
2023-03-29T10:14:37.516Z,64.33
2023-03-29T10:15:37.511Z,64.33
2023-03-29T10:16:37.606Z,64.33
2023-03-29T10:17:37.556Z,64.43
2023-03-29T10:18:37.468Z,64.43
2023-03-29T10:19:37.467Z,64.53
2023-03-29T10:20:37.519Z,64.43
2023-03-29T10:21:37.467Z,64.53
2023-03-29T10:22:37.441Z,64.53
2023-03-29T10:23:37.419Z,64.53
2023-03-29T10:24:37.420Z,64.53
2023-03-29T10:25:38.047Z,64.64
2023-03-29T10:26:37.419Z,64.64
2023-03-29T10:27:37.406Z,64.53
2023-03-29T10:28:37.361Z,64.53
2023-03-29T10:29:37.364Z,64.53
2023-03-29T10:30:37.341Z,64.53
2023-03-29T10:31:37.371Z,64.53
2023-03-29T10:32:37.380Z,64.53
2023-03-29T10:33:37.302Z,64.53
2023-03-29T10:34:37.295Z,64.43
2023-03-29T10:35:37.307Z,64.53
2023-03-29T10:36:37.319Z,64.53
2023-03-29T10:37:37.281Z,64.53
2023-03-29T10:38:37.252Z,64.53
2023-03-29T10:39:37.261Z,64.53
2023-03-29T10:40:37.230Z,64.53
2023-03-29T10:41:37.215Z,64.53
2023-03-29T10:42:37.206Z,64.53
2023-03-29T10:43:37.239Z,64.53
2023-03-29T10:44:37.184Z,64.53
2023-03-29T10:45:37.174Z,64.53
2023-03-29T10:46:37.221Z,64.43
2023-03-29T10:47:37.183Z,64.53
2023-03-29T10:48:37.166Z,64.43
2023-03-29T10:49:37.134Z,64.43
2023-03-29T10:50:37.121Z,64.43
2023-03-29T10:51:37.106Z,64.43
2023-03-29T10:52:37.120Z,64.23
2023-03-29T10:53:37.116Z,63.93
2023-03-29T10:54:37.074Z,64.33
2023-03-29T10:55:37.065Z,64.33
2023-03-29T10:56:37.067Z,64.33
2023-03-29T10:57:37.382Z,64.23
2023-03-29T10:58:37.033Z,64.23
2023-03-29T10:59:37.043Z,64.13
2023-03-29T11:00:37.021Z,64.13
2023-03-29T11:01:37.050Z,64.13
2023-03-29T11:02:37.126Z,64.23
2023-03-29T11:03:37.146Z,63.93
2023-03-29T11:04:37.003Z,64.03
2023-03-29T11:05:36.971Z,64.13
2023-03-29T11:06:36.943Z,63.93
2023-03-29T11:07:36.958Z,63.93
2023-03-29T11:08:36.952Z,63.82
2023-03-29T11:09:36.921Z,63.73
2023-03-29T11:10:36.901Z,63.65
2023-03-29T11:11:36.888Z,63.76
2023-03-29T11:12:36.878Z,63.76
2023-03-29T11:13:36.905Z,63.76
2023-03-29T11:14:36.858Z,63.76
2023-03-29T11:15:36.884Z,63.76
2023-03-29T11:16:36.840Z,63.76
2023-03-29T11:17:36.835Z,63.76
2023-03-29T11:18:36.835Z,63.76
2023-03-29T11:19:36.829Z,63.76
2023-03-29T11:20:36.789Z,63.76
2023-03-29T11:21:36.783Z,63.76
2023-03-29T11:22:36.770Z,63.76
2023-03-29T11:23:36.760Z,63.76
2023-03-29T11:24:36.820Z,63.76
2023-03-29T11:25:36.735Z,63.76
2023-03-29T11:26:36.725Z,63.76
2023-03-29T11:27:36.726Z,63.76
2023-03-29T11:28:36.708Z,63.76
2023-03-29T11:29:36.720Z,63.55
2023-03-29T11:30:36.694Z,63.65
2023-03-29T11:31:38.810Z,63.65
2023-03-29T11:32:36.689Z,63.65
2023-03-29T11:33:36.672Z,63.76
2023-03-29T11:34:36.844Z,63.76
2023-03-29T11:35:36.708Z,63.76
2023-03-29T11:36:36.616Z,63.76
2023-03-29T11:37:36.610Z,63.76
2023-03-29T11:38:36.601Z,63.76
2023-03-29T11:39:36.589Z,63.76
2023-03-29T11:40:36.628Z,63.76
2023-03-29T11:41:36.561Z,63.76
2023-03-29T11:42:36.551Z,63.76
2023-03-29T11:43:36.538Z,63.76
2023-03-29T11:44:36.569Z,63.76
2023-03-29T11:45:36.552Z,63.76
2023-03-29T11:46:36.536Z,63.76
2023-03-29T11:47:36.522Z,63.76
2023-03-29T11:48:36.493Z,63.76
2023-03-29T11:49:36.493Z,63.76
2023-03-29T11:50:36.923Z,63.76
2023-03-29T11:51:36.472Z,63.76
2023-03-29T11:52:36.445Z,63.65
2023-03-29T11:53:36.430Z,63.76
2023-03-29T11:54:36.447Z,63.96
2023-03-29T11:55:36.428Z,63.85
2023-03-29T11:56:36.426Z,63.76
2023-03-29T11:57:36.406Z,63.85
2023-03-29T11:58:38.354Z,63.76
2023-03-29T11:59:39.213Z,63.85
2023-03-29T12:00:36.354Z,63.96
2023-03-29T12:01:36.391Z,63.85
2023-03-29T12:02:36.480Z,63.85
2023-03-29T12:03:36.435Z,63.85
2023-03-29T12:04:36.338Z,63.85
2023-03-29T12:05:36.302Z,63.85
2023-03-29T12:06:36.285Z,63.85
2023-03-29T12:07:36.275Z,63.85
2023-03-29T12:08:36.272Z,63.85
2023-03-29T12:09:36.256Z,63.85
2023-03-29T12:10:36.270Z,63.85
2023-03-29T12:11:36.263Z,63.85
2023-03-29T12:12:36.296Z,63.85
2023-03-29T12:13:36.208Z,63.85
2023-03-29T12:14:36.205Z,63.85
2023-03-29T12:15:36.219Z,63.85
2023-03-29T12:16:36.229Z,63.85
2023-03-29T12:17:36.197Z,63.85
2023-03-29T12:18:36.154Z,63.85
2023-03-29T12:19:40.299Z,63.85
2023-03-29T12:20:37.166Z,63.85
2023-03-29T12:21:36.126Z,63.85
2023-03-29T12:22:36.113Z,63.85
2023-03-29T12:23:36.098Z,63.85
2023-03-29T12:24:36.089Z,63.96
2023-03-29T12:25:36.077Z,63.85
2023-03-29T12:26:36.145Z,63.85
2023-03-29T12:27:36.054Z,63.85
2023-03-29T12:28:36.073Z,63.85
2023-03-29T12:29:36.039Z,63.85
2023-03-29T12:30:36.026Z,63.85
2023-03-29T12:31:36.052Z,63.85
2023-03-29T12:32:36.038Z,63.85
2023-03-29T12:33:35.998Z,63.85
2023-03-29T12:34:39.106Z,63.96
2023-03-29T12:35:36.019Z,63.85
2023-03-29T12:36:35.967Z,63.96
2023-03-29T12:37:36.045Z,63.85
2023-03-29T12:38:35.939Z,63.85
2023-03-29T12:39:35.929Z,63.85
2023-03-29T12:40:35.929Z,63.85
2023-03-29T12:41:35.917Z,63.85
2023-03-29T12:42:39.440Z,63.85
2023-03-29T12:43:35.888Z,63.85
2023-03-29T12:44:35.904Z,63.85
2023-03-29T12:45:35.866Z,63.85
2023-03-29T12:46:36.993Z,63.76
2023-03-29T12:47:35.917Z,63.85
2023-03-29T12:48:35.837Z,63.85
2023-03-29T12:49:35.828Z,63.85
2023-03-29T12:50:35.811Z,63.85
2023-03-29T12:51:35.823Z,63.85
2023-03-29T12:52:35.792Z,63.76